sensor_id;sensor_type;location;lat;lon;timestamp;P1;durP1;ratioP1;P2;durP2;ratioP2
71116;SDS011;58775;46.992;9.518;2024-01-15T00:01:06;6.07;;;1.92;;
71116;SDS011;58775;46.992;9.518;2024-01-15T00:03:07;7.50;;;2.33;;
71116;SDS011;58775;46.992;9.518;2024-01-15T00:05:08;6.93;;;2.00;;
71116;SDS011;58775;46.992;9.518;2024-01-15T00:07:09;5.20;;;1.70;;
71116;SDS011;58775;46.992;9.518;2024-01-15T00:09:10;5.90;;;1.90;;
71116;SDS011;58775;46.992;9.518;2024-01-15T00:11:11;7.40;;;2.28;;
71116;SDS011;58775;46.992;9.518;2024-01-15T00:13:12;7.10;;;2.10;;
71116;SDS011;58775;46.992;9.518;2024-01-15T00:15:13;4.88;;;1.60;;
71116;SDS011;58775;46.992;9.518;2024-01-15T00:17:14;5.45;;;1.50;;
71116;SDS011;58775;46.992;9.518;2024-01-15T00:19:15;5.73;;;1.57;;
71116;SDS011;58775;46.992;9.518;2024-01-15T00:21:15;8.30;;;2.35;;
71116;SDS011;58775;46.992;9.518;2024-01-15T00:23:16;7.47;;;2.10;;
71116;SDS011;58775;46.992;9.518;2024-01-15T00:25:17;6.38;;;2.13;;
71116;SDS011;58775;46.992;9.518;2024-01-15T00:27:18;6.50;;;2.30;;
71116;SDS011;58775;46.992;9.518;2024-01-15T00:29:19;7.50;;;2.50;;
71116;SDS011;58775;46.992;9.518;2024-01-15T00:31:20;6.82;;;2.40;;
71116;SDS011;58775;46.992;9.518;2024-01-15T00:33:20;7.90;;;2.50;;
71116;SDS011;58775;46.992;9.518;2024-01-15T00:35:21;7.25;;;2.60;;
71116;SDS011;58775;46.992;9.518;2024-01-15T00:37:22;8.20;;;3.08;;
71116;SDS011;58775;46.992;9.518;2024-01-15T00:39:23;6.53;;;2.10;;
71116;SDS011;58775;46.992;9.518;2024-01-15T00:41:24;7.10;;;2.30;;
71116;SDS011;58775;46.992;9.518;2024-01-15T00:43:24;4.60;;;1.50;;
71116;SDS011;58775;46.992;9.518;2024-01-15T00:45:25;10.45;;;2.42;;
71116;SDS011;58775;46.992;9.518;2024-01-15T00:47:26;6.27;;;2.07;;
71116;SDS011;58775;46.992;9.518;2024-01-15T00:49:27;9.77;;;2.35;;
71116;SDS011;58775;46.992;9.518;2024-01-15T00:51:28;8.07;;;2.20;;
71116;SDS011;58775;46.992;9.518;2024-01-15T00:53:28;6.27;;;2.00;;
71116;SDS011;58775;46.992;9.518;2024-01-15T00:55:29;7.40;;;2.30;;
71116;SDS011;58775;46.992;9.518;2024-01-15T00:57:30;7.20;;;2.60;;
71116;SDS011;58775;46.992;9.518;2024-01-15T00:59:31;7.25;;;2.47;;
71116;SDS011;58775;46.992;9.518;2024-01-15T01:01:31;6.37;;;2.13;;
71116;SDS011;58775;46.992;9.518;2024-01-15T01:03:32;7.28;;;2.58;;
71116;SDS011;58775;46.992;9.518;2024-01-15T01:05:33;8.97;;;2.50;;
71116;SDS011;58775;46.992;9.518;2024-01-15T01:07:34;6.95;;;1.90;;
71116;SDS011;58775;46.992;9.518;2024-01-15T01:09:36;6.53;;;2.15;;
71116;SDS011;58775;46.992;9.518;2024-01-15T01:11:36;8.53;;;2.70;;
71116;SDS011;58775;46.992;9.518;2024-01-15T01:13:37;7.65;;;2.45;;
71116;SDS011;58775;46.992;9.518;2024-01-15T01:15:39;5.80;;;2.30;;
71116;SDS011;58775;46.992;9.518;2024-01-15T01:17:40;6.78;;;2.00;;
71116;SDS011;58775;46.992;9.518;2024-01-15T01:19:40;7.07;;;2.25;;
71116;SDS011;58775;46.992;9.518;2024-01-15T01:21:41;10.30;;;2.70;;
71116;SDS011;58775;46.992;9.518;2024-01-15T01:23:42;7.55;;;2.80;;
71116;SDS011;58775;46.992;9.518;2024-01-15T01:25:43;7.83;;;2.40;;
71116;SDS011;58775;46.992;9.518;2024-01-15T01:27:44;9.23;;;2.83;;
71116;SDS011;58775;46.992;9.518;2024-01-15T01:29:44;7.30;;;2.92;;
71116;SDS011;58775;46.992;9.518;2024-01-15T01:31:45;10.07;;;2.92;;
71116;SDS011;58775;46.992;9.518;2024-01-15T01:33:49;9.93;;;3.30;;
71116;SDS011;58775;46.992;9.518;2024-01-15T01:35:50;10.68;;;3.55;;
71116;SDS011;58775;46.992;9.518;2024-01-15T01:37:51;11.23;;;4.10;;
71116;SDS011;58775;46.992;9.518;2024-01-15T01:39:52;9.80;;;3.70;;
71116;SDS011;58775;46.992;9.518;2024-01-15T01:41:52;13.27;;;4.40;;
71116;SDS011;58775;46.992;9.518;2024-01-15T01:43:53;12.57;;;4.25;;
71116;SDS011;58775;46.992;9.518;2024-01-15T01:45:55;11.60;;;4.07;;
71116;SDS011;58775;46.992;9.518;2024-01-15T01:47:58;12.43;;;4.07;;
71116;SDS011;58775;46.992;9.518;2024-01-15T01:50:01;10.68;;;3.60;;
71116;SDS011;58775;46.992;9.518;2024-01-15T01:52:03;9.68;;;3.60;;
71116;SDS011;58775;46.992;9.518;2024-01-15T01:54:06;7.97;;;3.10;;
71116;SDS011;58775;46.992;9.518;2024-01-15T01:56:09;8.55;;;2.88;;
71116;SDS011;58775;46.992;9.518;2024-01-15T01:58:10;9.75;;;2.88;;
71116;SDS011;58775;46.992;9.518;2024-01-15T02:00:11;7.93;;;3.00;;
71116;SDS011;58775;46.992;9.518;2024-01-15T02:02:13;7.83;;;2.73;;
71116;SDS011;58775;46.992;9.518;2024-01-15T02:04:14;8.00;;;2.75;;
71116;SDS011;58775;46.992;9.518;2024-01-15T02:06:15;7.15;;;2.92;;
71116;SDS011;58775;46.992;9.518;2024-01-15T02:08:16;7.47;;;2.30;;
71116;SDS011;58775;46.992;9.518;2024-01-15T02:10:17;7.90;;;2.33;;
71116;SDS011;58775;46.992;9.518;2024-01-15T02:12:18;7.10;;;2.33;;
71116;SDS011;58775;46.992;9.518;2024-01-15T02:14:19;6.30;;;2.33;;
71116;SDS011;58775;46.992;9.518;2024-01-15T02:16:20;6.72;;;2.40;;
71116;SDS011;58775;46.992;9.518;2024-01-15T02:18:21;8.18;;;2.40;;
71116;SDS011;58775;46.992;9.518;2024-01-15T02:20:21;6.17;;;2.07;;
71116;SDS011;58775;46.992;9.518;2024-01-15T02:22:22;7.97;;;2.53;;
71116;SDS011;58775;46.992;9.518;2024-01-15T02:24:23;8.23;;;2.47;;
71116;SDS011;58775;46.992;9.518;2024-01-15T02:26:24;7.30;;;2.40;;
71116;SDS011;58775;46.992;9.518;2024-01-15T02:28:24;6.72;;;2.60;;
71116;SDS011;58775;46.992;9.518;2024-01-15T02:30:25;10.38;;;2.13;;
71116;SDS011;58775;46.992;9.518;2024-01-15T02:32:28;7.38;;;2.10;;
71116;SDS011;58775;46.992;9.518;2024-01-15T02:34:31;7.47;;;2.03;;
71116;SDS011;58775;46.992;9.518;2024-01-15T02:36:32;6.53;;;2.10;;
71116;SDS011;58775;46.992;9.518;2024-01-15T02:38:33;8.50;;;2.88;;
71116;SDS011;58775;46.992;9.518;2024-01-15T02:40:34;8.13;;;2.50;;
71116;SDS011;58775;46.992;9.518;2024-01-15T02:42:35;6.80;;;2.60;;
71116;SDS011;58775;46.992;9.518;2024-01-15T02:44:36;10.07;;;2.60;;
71116;SDS011;58775;46.992;9.518;2024-01-15T02:46:37;9.20;;;3.13;;
71116;SDS011;58775;46.992;9.518;2024-01-15T02:48:37;8.57;;;2.80;;
71116;SDS011;58775;46.992;9.518;2024-01-15T02:50:38;8.20;;;3.08;;
71116;SDS011;58775;46.992;9.518;2024-01-15T02:52:41;8.63;;;2.50;;
71116;SDS011;58775;46.992;9.518;2024-01-15T02:54:42;8.10;;;2.77;;
71116;SDS011;58775;46.992;9.518;2024-01-15T02:56:43;7.53;;;3.20;;
71116;SDS011;58775;46.992;9.518;2024-01-15T02:58:44;8.60;;;3.22;;
71116;SDS011;58775;46.992;9.518;2024-01-15T03:00:45;7.97;;;3.10;;
71116;SDS011;58775;46.992;9.518;2024-01-15T03:02:47;12.05;;;3.53;;
71116;SDS011;58775;46.992;9.518;2024-01-15T03:04:48;10.38;;;3.58;;
71116;SDS011;58775;46.992;9.518;2024-01-15T03:06:49;10.13;;;3.63;;
71116;SDS011;58775;46.992;9.518;2024-01-15T03:08:50;9.52;;;3.15;;
71116;SDS011;58775;46.992;9.518;2024-01-15T03:10:51;9.98;;;3.30;;
71116;SDS011;58775;46.992;9.518;2024-01-15T03:12:51;10.27;;;3.77;;
71116;SDS011;58775;46.992;9.518;2024-01-15T03:14:52;10.38;;;3.53;;
71116;SDS011;58775;46.992;9.518;2024-01-15T03:16:53;12.82;;;4.50;;
71116;SDS011;58775;46.992;9.518;2024-01-15T03:18:54;14.53;;;3.73;;
71116;SDS011;58775;46.992;9.518;2024-01-15T03:20:55;8.38;;;2.92;;
71116;SDS011;58775;46.992;9.518;2024-01-15T03:22:56;11.73;;;3.53;;
71116;SDS011;58775;46.992;9.518;2024-01-15T03:24:56;9.32;;;3.70;;
71116;SDS011;58775;46.992;9.518;2024-01-15T03:27:00;7.70;;;3.00;;
71116;SDS011;58775;46.992;9.518;2024-01-15T03:29:01;9.90;;;3.37;;
71116;SDS011;58775;46.992;9.518;2024-01-15T03:31:03;8.45;;;3.60;;
71116;SDS011;58775;46.992;9.518;2024-01-15T03:33:04;9.82;;;3.45;;
71116;SDS011;58775;46.992;9.518;2024-01-15T03:35:05;9.90;;;3.83;;
71116;SDS011;58775;46.992;9.518;2024-01-15T03:37:06;10.83;;;3.87;;
71116;SDS011;58775;46.992;9.518;2024-01-15T03:39:07;9.63;;;3.67;;
71116;SDS011;58775;46.992;9.518;2024-01-15T03:41:08;9.95;;;4.13;;
71116;SDS011;58775;46.992;9.518;2024-01-15T03:43:09;10.68;;;3.95;;
71116;SDS011;58775;46.992;9.518;2024-01-15T03:45:10;9.67;;;3.67;;
71116;SDS011;58775;46.992;9.518;2024-01-15T03:47:11;11.40;;;5.03;;
71116;SDS011;58775;46.992;9.518;2024-01-15T03:49:11;9.13;;;4.18;;
71116;SDS011;58775;46.992;9.518;2024-01-15T03:51:12;8.45;;;3.80;;
71116;SDS011;58775;46.992;9.518;2024-01-15T03:53:15;11.13;;;4.20;;
71116;SDS011;58775;46.992;9.518;2024-01-15T03:55:16;8.93;;;3.43;;
71116;SDS011;58775;46.992;9.518;2024-01-15T03:57:17;10.25;;;4.03;;
71116;SDS011;58775;46.992;9.518;2024-01-15T03:59:18;13.00;;;4.00;;
71116;SDS011;58775;46.992;9.518;2024-01-15T04:01:18;10.38;;;3.97;;
71116;SDS011;58775;46.992;9.518;2024-01-15T04:03:19;12.80;;;4.40;;
71116;SDS011;58775;46.992;9.518;2024-01-15T04:05:20;7.90;;;3.65;;
71116;SDS011;58775;46.992;9.518;2024-01-15T04:07:21;8.23;;;4.17;;
71116;SDS011;58775;46.992;9.518;2024-01-15T04:09:21;11.07;;;3.67;;
71116;SDS011;58775;46.992;9.518;2024-01-15T04:11:23;12.40;;;4.00;;
71116;SDS011;58775;46.992;9.518;2024-01-15T04:13:23;9.57;;;3.73;;
71116;SDS011;58775;46.992;9.518;2024-01-15T04:15:24;9.55;;;3.72;;
71116;SDS011;58775;46.992;9.518;2024-01-15T04:17:25;11.20;;;3.70;;
71116;SDS011;58775;46.992;9.518;2024-01-15T04:19:26;8.73;;;3.75;;
71116;SDS011;58775;46.992;9.518;2024-01-15T04:21:26;11.27;;;4.40;;
71116;SDS011;58775;46.992;9.518;2024-01-15T04:23:27;9.52;;;3.83;;
71116;SDS011;58775;46.992;9.518;2024-01-15T04:25:28;11.35;;;4.47;;
71116;SDS011;58775;46.992;9.518;2024-01-15T04:27:29;12.47;;;4.47;;
71116;SDS011;58775;46.992;9.518;2024-01-15T04:29:30;11.15;;;4.28;;
71116;SDS011;58775;46.992;9.518;2024-01-15T04:31:30;10.67;;;4.37;;
71116;SDS011;58775;46.992;9.518;2024-01-15T04:33:31;11.18;;;4.03;;
71116;SDS011;58775;46.992;9.518;2024-01-15T04:35:32;8.57;;;4.33;;
71116;SDS011;58775;46.992;9.518;2024-01-15T04:37:34;11.70;;;4.25;;
71116;SDS011;58775;46.992;9.518;2024-01-15T04:39:34;13.73;;;4.25;;
71116;SDS011;58775;46.992;9.518;2024-01-15T04:41:35;10.30;;;4.30;;
71116;SDS011;58775;46.992;9.518;2024-01-15T04:43:36;10.80;;;4.40;;
71116;SDS011;58775;46.992;9.518;2024-01-15T04:45:37;9.03;;;4.10;;
71116;SDS011;58775;46.992;9.518;2024-01-15T04:47:38;10.90;;;4.30;;
71116;SDS011;58775;46.992;9.518;2024-01-15T04:49:39;18.02;;;5.93;;
71116;SDS011;58775;46.992;9.518;2024-01-15T04:51:39;16.13;;;7.60;;
71116;SDS011;58775;46.992;9.518;2024-01-15T04:53:41;20.70;;;8.85;;
71116;SDS011;58775;46.992;9.518;2024-01-15T04:55:42;18.10;;;7.85;;
71116;SDS011;58775;46.992;9.518;2024-01-15T04:57:42;14.93;;;6.17;;
71116;SDS011;58775;46.992;9.518;2024-01-15T04:59:44;11.95;;;5.97;;
71116;SDS011;58775;46.992;9.518;2024-01-15T05:01:45;11.43;;;5.47;;
71116;SDS011;58775;46.992;9.518;2024-01-15T05:03:45;14.63;;;5.30;;
71116;SDS011;58775;46.992;9.518;2024-01-15T05:05:46;12.07;;;5.05;;
71116;SDS011;58775;46.992;9.518;2024-01-15T05:07:47;11.50;;;4.40;;
71116;SDS011;58775;46.992;9.518;2024-01-15T05:09:48;10.90;;;5.15;;
71116;SDS011;58775;46.992;9.518;2024-01-15T05:11:48;11.03;;;4.60;;
71116;SDS011;58775;46.992;9.518;2024-01-15T05:13:49;9.73;;;4.28;;
71116;SDS011;58775;46.992;9.518;2024-01-15T05:15:50;12.67;;;4.80;;
71116;SDS011;58775;46.992;9.518;2024-01-15T05:17:51;10.15;;;4.30;;
71116;SDS011;58775;46.992;9.518;2024-01-15T05:19:52;11.73;;;4.15;;
71116;SDS011;58775;46.992;9.518;2024-01-15T05:21:52;8.73;;;4.20;;
71116;SDS011;58775;46.992;9.518;2024-01-15T05:23:53;10.48;;;4.57;;
71116;SDS011;58775;46.992;9.518;2024-01-15T05:25:54;10.10;;;4.40;;
71116;SDS011;58775;46.992;9.518;2024-01-15T05:27:55;11.93;;;4.70;;
71116;SDS011;58775;46.992;9.518;2024-01-15T05:29:56;11.10;;;4.68;;
71116;SDS011;58775;46.992;9.518;2024-01-15T05:31:57;10.93;;;5.23;;
71116;SDS011;58775;46.992;9.518;2024-01-15T05:33:57;11.00;;;4.40;;
71116;SDS011;58775;46.992;9.518;2024-01-15T05:35:58;9.87;;;5.03;;
71116;SDS011;58775;46.992;9.518;2024-01-15T05:37:59;11.75;;;5.35;;
71116;SDS011;58775;46.992;9.518;2024-01-15T05:40:00;11.17;;;4.43;;
71116;SDS011;58775;46.992;9.518;2024-01-15T05:42:01;12.82;;;4.60;;
71116;SDS011;58775;46.992;9.518;2024-01-15T05:44:01;12.80;;;5.40;;
71116;SDS011;58775;46.992;9.518;2024-01-15T05:46:02;11.67;;;4.80;;
71116;SDS011;58775;46.992;9.518;2024-01-15T05:48:04;11.07;;;4.85;;
71116;SDS011;58775;46.992;9.518;2024-01-15T05:50:08;10.07;;;4.80;;
71116;SDS011;58775;46.992;9.518;2024-01-15T05:52:10;12.65;;;4.75;;
71116;SDS011;58775;46.992;9.518;2024-01-15T05:54:11;12.07;;;5.00;;
71116;SDS011;58775;46.992;9.518;2024-01-15T05:56:11;12.73;;;5.22;;
71116;SDS011;58775;46.992;9.518;2024-01-15T05:58:12;10.90;;;5.17;;
71116;SDS011;58775;46.992;9.518;2024-01-15T06:00:13;14.90;;;4.95;;
71116;SDS011;58775;46.992;9.518;2024-01-15T06:02:14;12.80;;;5.43;;
71116;SDS011;58775;46.992;9.518;2024-01-15T06:04:15;13.77;;;6.57;;
71116;SDS011;58775;46.992;9.518;2024-01-15T06:06:16;12.95;;;5.80;;
71116;SDS011;58775;46.992;9.518;2024-01-15T06:08:16;10.93;;;4.97;;
71116;SDS011;58775;46.992;9.518;2024-01-15T06:10:19;11.27;;;4.90;;
71116;SDS011;58775;46.992;9.518;2024-01-15T06:12:20;11.60;;;5.63;;
71116;SDS011;58775;46.992;9.518;2024-01-15T06:14:21;13.18;;;5.82;;
71116;SDS011;58775;46.992;9.518;2024-01-15T06:16:21;12.75;;;5.95;;
71116;SDS011;58775;46.992;9.518;2024-01-15T06:18:24;10.38;;;4.97;;
71116;SDS011;58775;46.992;9.518;2024-01-15T06:20:24;12.23;;;5.43;;
71116;SDS011;58775;46.992;9.518;2024-01-15T06:22:25;13.25;;;5.80;;
71116;SDS011;58775;46.992;9.518;2024-01-15T06:24:26;13.90;;;6.23;;
71116;SDS011;58775;46.992;9.518;2024-01-15T06:26:27;15.32;;;6.70;;
71116;SDS011;58775;46.992;9.518;2024-01-15T06:28:28;13.40;;;6.82;;
71116;SDS011;58775;46.992;9.518;2024-01-15T06:30:29;16.10;;;7.50;;
71116;SDS011;58775;46.992;9.518;2024-01-15T06:32:30;18.33;;;7.38;;
71116;SDS011;58775;46.992;9.518;2024-01-15T06:34:31;16.93;;;7.30;;
71116;SDS011;58775;46.992;9.518;2024-01-15T06:36:32;18.05;;;7.80;;
71116;SDS011;58775;46.992;9.518;2024-01-15T06:38:32;16.08;;;8.13;;
71116;SDS011;58775;46.992;9.518;2024-01-15T06:40:33;15.70;;;8.43;;
71116;SDS011;58775;46.992;9.518;2024-01-15T06:42:35;17.42;;;7.80;;
71116;SDS011;58775;46.992;9.518;2024-01-15T06:44:35;12.88;;;6.35;;
71116;SDS011;58775;46.992;9.518;2024-01-15T06:46:36;12.90;;;5.80;;
71116;SDS011;58775;46.992;9.518;2024-01-15T06:48:42;15.20;;;6.75;;
71116;SDS011;58775;46.992;9.518;2024-01-15T06:50:43;17.13;;;8.57;;
71116;SDS011;58775;46.992;9.518;2024-01-15T06:52:43;20.08;;;8.05;;
71116;SDS011;58775;46.992;9.518;2024-01-15T06:54:44;16.77;;;8.97;;
71116;SDS011;58775;46.992;9.518;2024-01-15T06:56:45;18.25;;;8.15;;
71116;SDS011;58775;46.992;9.518;2024-01-15T06:58:46;18.03;;;8.13;;
71116;SDS011;58775;46.992;9.518;2024-01-15T07:00:47;17.23;;;7.50;;
71116;SDS011;58775;46.992;9.518;2024-01-15T07:02:47;17.57;;;7.30;;
71116;SDS011;58775;46.992;9.518;2024-01-15T07:04:48;18.10;;;8.43;;
71116;SDS011;58775;46.992;9.518;2024-01-15T07:06:49;17.03;;;7.20;;
71116;SDS011;58775;46.992;9.518;2024-01-15T07:08:50;16.90;;;7.35;;
71116;SDS011;58775;46.992;9.518;2024-01-15T07:10:51;17.40;;;7.57;;
71116;SDS011;58775;46.992;9.518;2024-01-15T07:12:52;16.37;;;7.23;;
71116;SDS011;58775;46.992;9.518;2024-01-15T07:14:53;17.80;;;7.60;;
71116;SDS011;58775;46.992;9.518;2024-01-15T07:16:55;15.07;;;7.63;;
71116;SDS011;58775;46.992;9.518;2024-01-15T07:18:56;16.20;;;7.72;;
71116;SDS011;58775;46.992;9.518;2024-01-15T07:20:56;16.73;;;8.47;;
71116;SDS011;58775;46.992;9.518;2024-01-15T07:22:57;22.10;;;9.20;;
71116;SDS011;58775;46.992;9.518;2024-01-15T07:24:58;18.43;;;8.73;;
71116;SDS011;58775;46.992;9.518;2024-01-15T07:26:59;16.42;;;7.53;;
71116;SDS011;58775;46.992;9.518;2024-01-15T07:29:00;19.33;;;8.40;;
71116;SDS011;58775;46.992;9.518;2024-01-15T07:31:01;17.00;;;7.77;;
71116;SDS011;58775;46.992;9.518;2024-01-15T07:33:02;20.10;;;8.32;;
71116;SDS011;58775;46.992;9.518;2024-01-15T07:35:04;20.02;;;9.07;;
71116;SDS011;58775;46.992;9.518;2024-01-15T07:37:06;19.17;;;8.43;;
71116;SDS011;58775;46.992;9.518;2024-01-15T07:39:07;20.25;;;8.50;;
71116;SDS011;58775;46.992;9.518;2024-01-15T07:41:08;20.50;;;8.63;;
71116;SDS011;58775;46.992;9.518;2024-01-15T07:43:08;20.23;;;9.90;;
71116;SDS011;58775;46.992;9.518;2024-01-15T07:45:12;19.75;;;8.13;;
71116;SDS011;58775;46.992;9.518;2024-01-15T07:47:13;21.77;;;8.68;;
71116;SDS011;58775;46.992;9.518;2024-01-15T07:49:14;23.17;;;8.37;;
71116;SDS011;58775;46.992;9.518;2024-01-15T07:51:15;19.73;;;8.50;;
71116;SDS011;58775;46.992;9.518;2024-01-15T07:53:16;18.95;;;8.75;;
71116;SDS011;58775;46.992;9.518;2024-01-15T07:55:17;17.97;;;7.80;;
71116;SDS011;58775;46.992;9.518;2024-01-15T07:57:17;16.35;;;7.07;;
71116;SDS011;58775;46.992;9.518;2024-01-15T07:59:18;18.13;;;8.57;;
71116;SDS011;58775;46.992;9.518;2024-01-15T08:01:19;18.80;;;7.88;;
71116;SDS011;58775;46.992;9.518;2024-01-15T08:03:20;15.68;;;7.20;;
71116;SDS011;58775;46.992;9.518;2024-01-15T08:05:21;18.67;;;7.73;;
71116;SDS011;58775;46.992;9.518;2024-01-15T08:07:21;15.90;;;6.82;;
71116;SDS011;58775;46.992;9.518;2024-01-15T08:09:22;16.07;;;6.80;;
71116;SDS011;58775;46.992;9.518;2024-01-15T08:11:23;19.15;;;6.80;;
71116;SDS011;58775;46.992;9.518;2024-01-15T08:13:26;16.25;;;6.57;;
71116;SDS011;58775;46.992;9.518;2024-01-15T08:15:28;15.15;;;6.47;;
71116;SDS011;58775;46.992;9.518;2024-01-15T08:17:29;14.20;;;5.78;;
71116;SDS011;58775;46.992;9.518;2024-01-15T08:19:29;15.60;;;5.88;;
71116;SDS011;58775;46.992;9.518;2024-01-15T08:21:30;14.73;;;5.45;;
71116;SDS011;58775;46.992;9.518;2024-01-15T08:23:32;15.18;;;5.15;;
71116;SDS011;58775;46.992;9.518;2024-01-15T08:25:35;16.35;;;6.05;;
71116;SDS011;58775;46.992;9.518;2024-01-15T08:27:36;14.17;;;5.40;;
71116;SDS011;58775;46.992;9.518;2024-01-15T08:29:36;13.57;;;5.53;;
71116;SDS011;58775;46.992;9.518;2024-01-15T08:31:37;13.27;;;5.30;;
71116;SDS011;58775;46.992;9.518;2024-01-15T08:33:38;13.07;;;4.75;;
71116;SDS011;58775;46.992;9.518;2024-01-15T08:35:39;15.20;;;5.32;;
71116;SDS011;58775;46.992;9.518;2024-01-15T08:37:39;14.25;;;5.30;;
71116;SDS011;58775;46.992;9.518;2024-01-15T08:39:40;15.00;;;5.80;;
71116;SDS011;58775;46.992;9.518;2024-01-15T08:41:41;13.93;;;5.57;;
71116;SDS011;58775;46.992;9.518;2024-01-15T08:43:42;15.88;;;6.72;;
71116;SDS011;58775;46.992;9.518;2024-01-15T08:45:42;13.47;;;5.20;;
71116;SDS011;58775;46.992;9.518;2024-01-15T08:47:43;36.58;;;10.13;;
71116;SDS011;58775;46.992;9.518;2024-01-15T08:49:44;52.23;;;15.83;;
71116;SDS011;58775;46.992;9.518;2024-01-15T08:51:46;41.08;;;11.90;;
71116;SDS011;58775;46.992;9.518;2024-01-15T08:53:48;22.77;;;6.70;;
71116;SDS011;58775;46.992;9.518;2024-01-15T08:55:49;14.80;;;5.53;;
71116;SDS011;58775;46.992;9.518;2024-01-15T08:57:50;11.70;;;4.35;;
71116;SDS011;58775;46.992;9.518;2024-01-15T08:59:51;18.33;;;6.18;;
71116;SDS011;58775;46.992;9.518;2024-01-15T09:01:52;12.82;;;4.75;;
71116;SDS011;58775;46.992;9.518;2024-01-15T09:03:53;13.40;;;5.10;;
71116;SDS011;58775;46.992;9.518;2024-01-15T09:05:54;11.73;;;4.78;;
71116;SDS011;58775;46.992;9.518;2024-01-15T09:07:55;11.00;;;4.80;;
71116;SDS011;58775;46.992;9.518;2024-01-15T09:09:56;11.20;;;4.80;;
71116;SDS011;58775;46.992;9.518;2024-01-15T09:11:59;9.82;;;4.22;;
71116;SDS011;58775;46.992;9.518;2024-01-15T09:14:00;11.10;;;3.97;;
71116;SDS011;58775;46.992;9.518;2024-01-15T09:16:01;10.82;;;4.13;;
71116;SDS011;58775;46.992;9.518;2024-01-15T09:18:02;10.20;;;3.97;;
71116;SDS011;58775;46.992;9.518;2024-01-15T09:20:03;11.53;;;4.23;;
71116;SDS011;58775;46.992;9.518;2024-01-15T09:22:05;11.43;;;4.05;;
71116;SDS011;58775;46.992;9.518;2024-01-15T09:24:07;10.32;;;4.00;;
71116;SDS011;58775;46.992;9.518;2024-01-15T09:26:08;11.20;;;3.80;;
71116;SDS011;58775;46.992;9.518;2024-01-15T09:28:11;11.50;;;3.95;;
71116;SDS011;58775;46.992;9.518;2024-01-15T09:30:14;11.70;;;4.30;;
71116;SDS011;58775;46.992;9.518;2024-01-15T09:32:17;11.35;;;4.05;;
71116;SDS011;58775;46.992;9.518;2024-01-15T09:34:22;11.82;;;3.80;;
71116;SDS011;58775;46.992;9.518;2024-01-15T09:36:24;9.90;;;3.43;;
71116;SDS011;58775;46.992;9.518;2024-01-15T09:38:27;7.88;;;2.90;;
71116;SDS011;58775;46.992;9.518;2024-01-15T09:40:28;11.90;;;3.50;;
71116;SDS011;58775;46.992;9.518;2024-01-15T09:42:33;10.65;;;4.22;;
71116;SDS011;58775;46.992;9.518;2024-01-15T09:44:36;18.27;;;9.10;;
71116;SDS011;58775;46.992;9.518;2024-01-15T09:46:37;28.30;;;14.88;;
71116;SDS011;58775;46.992;9.518;2024-01-15T09:48:39;15.60;;;6.32;;
71116;SDS011;58775;46.992;9.518;2024-01-15T09:50:40;10.50;;;4.00;;
71116;SDS011;58775;46.992;9.518;2024-01-15T09:52:40;10.90;;;4.20;;
71116;SDS011;58775;46.992;9.518;2024-01-15T09:54:43;10.48;;;3.92;;
71116;SDS011;58775;46.992;9.518;2024-01-15T09:56:46;12.43;;;3.42;;
71116;SDS011;58775;46.992;9.518;2024-01-15T09:58:47;8.40;;;3.28;;
71116;SDS011;58775;46.992;9.518;2024-01-15T10:00:49;8.70;;;3.03;;
71116;SDS011;58775;46.992;9.518;2024-01-15T10:02:50;9.65;;;3.05;;
71116;SDS011;58775;46.992;9.518;2024-01-15T10:04:51;10.10;;;3.80;;
71116;SDS011;58775;46.992;9.518;2024-01-15T10:06:52;11.67;;;3.77;;
71116;SDS011;58775;46.992;9.518;2024-01-15T10:08:54;11.25;;;3.83;;
71116;SDS011;58775;46.992;9.518;2024-01-15T10:10:58;11.48;;;3.72;;
71116;SDS011;58775;46.992;9.518;2024-01-15T10:12:59;9.32;;;3.35;;
71116;SDS011;58775;46.992;9.518;2024-01-15T10:15:01;9.43;;;3.17;;
71116;SDS011;58775;46.992;9.518;2024-01-15T10:17:11;10.15;;;3.63;;
71116;SDS011;58775;46.992;9.518;2024-01-15T10:19:13;8.95;;;3.00;;
71116;SDS011;58775;46.992;9.518;2024-01-15T10:21:14;9.73;;;3.33;;
71116;SDS011;58775;46.992;9.518;2024-01-15T10:23:15;13.17;;;4.50;;
71116;SDS011;58775;46.992;9.518;2024-01-15T10:25:16;30.77;;;7.65;;
71116;SDS011;58775;46.992;9.518;2024-01-15T10:27:22;66.15;;;21.08;;
71116;SDS011;58775;46.992;9.518;2024-01-15T10:29:24;55.10;;;19.10;;
71116;SDS011;58775;46.992;9.518;2024-01-15T10:31:25;21.25;;;7.13;;
71116;SDS011;58775;46.992;9.518;2024-01-15T10:33:27;11.25;;;4.38;;
71116;SDS011;58775;46.992;9.518;2024-01-15T10:35:31;10.15;;;3.35;;
71116;SDS011;58775;46.992;9.518;2024-01-15T10:37:33;8.70;;;2.95;;
71116;SDS011;58775;46.992;9.518;2024-01-15T10:39:35;9.00;;;2.87;;
71116;SDS011;58775;46.992;9.518;2024-01-15T10:41:36;11.50;;;3.40;;
71116;SDS011;58775;46.992;9.518;2024-01-15T10:43:37;7.60;;;3.22;;
71116;SDS011;58775;46.992;9.518;2024-01-15T10:45:38;9.10;;;3.00;;
71116;SDS011;58775;46.992;9.518;2024-01-15T10:47:40;8.43;;;3.13;;
71116;SDS011;58775;46.992;9.518;2024-01-15T10:49:42;10.98;;;3.35;;
71116;SDS011;58775;46.992;9.518;2024-01-15T10:51:43;8.63;;;3.08;;
71116;SDS011;58775;46.992;9.518;2024-01-15T10:53:44;10.32;;;3.50;;
71116;SDS011;58775;46.992;9.518;2024-01-15T10:55:46;8.00;;;3.37;;
71116;SDS011;58775;46.992;9.518;2024-01-15T10:57:51;7.00;;;2.70;;
71116;SDS011;58775;46.992;9.518;2024-01-15T10:59:53;8.75;;;3.25;;
71116;SDS011;58775;46.992;9.518;2024-01-15T11:01:54;11.23;;;3.47;;
71116;SDS011;58775;46.992;9.518;2024-01-15T11:03:56;8.50;;;3.13;;
71116;SDS011;58775;46.992;9.518;2024-01-15T11:05:57;10.18;;;3.90;;
71116;SDS011;58775;46.992;9.518;2024-01-15T11:07:59;10.57;;;3.60;;
71116;SDS011;58775;46.992;9.518;2024-01-15T11:10:03;7.70;;;3.00;;
71116;SDS011;58775;46.992;9.518;2024-01-15T11:12:11;7.35;;;2.88;;
71116;SDS011;58775;46.992;9.518;2024-01-15T11:16:54;10.60;;;3.30;;
71116;SDS011;58775;46.992;9.518;2024-01-15T11:23:41;7.83;;;2.77;;
71116;SDS011;58775;46.992;9.518;2024-01-15T11:25:44;9.65;;;2.90;;
71116;SDS011;58775;46.992;9.518;2024-01-15T11:27:49;7.95;;;2.80;;
71116;SDS011;58775;46.992;9.518;2024-01-15T11:30:02;10.38;;;3.22;;
71116;SDS011;58775;46.992;9.518;2024-01-15T11:32:05;9.32;;;3.25;;
71116;SDS011;58775;46.992;9.518;2024-01-15T11:34:10;8.43;;;2.77;;
71116;SDS011;58775;46.992;9.518;2024-01-15T11:36:12;7.20;;;2.55;;
71116;SDS011;58775;46.992;9.518;2024-01-15T11:38:24;9.00;;;2.92;;
71116;SDS011;58775;46.992;9.518;2024-01-15T11:42:34;9.27;;;2.60;;
71116;SDS011;58775;46.992;9.518;2024-01-15T11:44:35;6.43;;;2.25;;
71116;SDS011;58775;46.992;9.518;2024-01-15T11:46:38;8.80;;;2.53;;
71116;SDS011;58775;46.992;9.518;2024-01-15T11:48:48;8.13;;;2.67;;
71116;SDS011;58775;46.992;9.518;2024-01-15T11:51:00;8.47;;;2.97;;
71116;SDS011;58775;46.992;9.518;2024-01-15T11:53:03;8.77;;;3.17;;
71116;SDS011;58775;46.992;9.518;2024-01-15T11:57:21;8.23;;;3.00;;
71116;SDS011;58775;46.992;9.518;2024-01-15T11:59:33;8.95;;;2.70;;
71116;SDS011;58775;46.992;9.518;2024-01-15T12:01:35;10.53;;;2.67;;
71116;SDS011;58775;46.992;9.518;2024-01-15T12:03:35;6.93;;;2.40;;
71116;SDS011;58775;46.992;9.518;2024-01-15T12:05:37;6.22;;;2.05;;
71116;SDS011;58775;46.992;9.518;2024-01-15T12:07:39;8.43;;;2.73;;
71116;SDS011;58775;46.992;9.518;2024-01-15T12:09:43;8.48;;;2.80;;
71116;SDS011;58775;46.992;9.518;2024-01-15T12:11:46;6.88;;;2.90;;
71116;SDS011;58775;46.992;9.518;2024-01-15T12:13:53;8.63;;;3.22;;
71116;SDS011;58775;46.992;9.518;2024-01-15T12:15:57;9.33;;;3.07;;
71116;SDS011;58775;46.992;9.518;2024-01-15T12:17:59;7.43;;;2.80;;